Lavaca Bay — WDF2105 — position and weather

sailwx.info

Track history (hours):
 
Tides and Currents Weather Stations Pressure Air Temp Water Temp Dewpoint Dewpoint Depression Visibility Wind Speed Wind Dir Waves Ship Positions

Lavaca Bay

Owner: Higman Barge Lines, Inc, Orange, TX. More information available from US FCC via Universal Licensing System and Coast Guard Vessel Documentation Center.

Last reported at 2017-May-23 06:49 UTC. Time now 2017-May-23 10:57 UTC.
Position N 29°46' W 095°07'.

Length 24 m; draft 3 m.

Type: Towing. MMSI: 367424940.

Date/timePositionNaut miles runAvg speedWind from/ knotsBaromVisibWave heightAir tempDewpointWater temp
2017-May-23 06:49N 29°46' W 095°07'1 2.1
2017-May-23 06:26N 29°45' W 095°06'0 1.0
2017-May-23 05:59N 29°46' W 095°05'1 2.1
2017-May-23 05:30N 29°46' W 095°04'3 6.2
2017-May-23 05:00N 29°44' W 095°01'3 6.1
2017-May-23 04:30N 29°41' W 094°59'4 7.3
2017-May-23 04:00N 29°38' W 094°58'4 7.3
2017-May-23 03:30N 29°35' W 094°56'4 7.2
2017-May-23 03:00N 29°32' W 094°53'3 6.4
2017-May-23 02:30N 29°29' W 094°52'50 1.8
2017-May-21 23:11N 29°49' W 093°59'  
2017-May-18 19:36N 30°03' W 093°44'1 6.3
2017-May-18 19:30N 30°03' W 093°43'3 5.8
2017-May-18 19:00N 30°04' W 093°40'0 0.0
2017-May-18 18:30N 30°04' W 093°40'2 4.7
2017-May-18 18:00N 30°04' W 093°37'3 5.7
2017-May-18 17:30N 30°04' W 093°34'3 6.6
2017-May-18 16:59N 30°04' W 093°30'3 5.5
2017-May-18 16:30N 30°04' W 093°27'4 7.0
2017-May-18 15:59N 30°04' W 093°23'3 5.4
2017-May-18 15:29N 30°05' W 093°20'2 3.8
2017-May-18 15:00N 30°06' W 093°18'0 0.0
2017-May-18 14:00N 30°06' W 093°18'0 0.1
2017-May-18 13:30N 30°06' W 093°18'2 4.1
2017-May-18 13:00N 30°05' W 093°17'2 3.4
2017-May-18 12:30N 30°03' W 093°16'2 4.6
2017-May-18 12:00N 30°01' W 093°14'3 5.5
2017-May-18 11:30N 29°59' W 093°12'0 0.3
2017-May-18 11:00N 29°59' W 093°12'0 0.0
2017-May-18 10:30N 29°59' W 093°12'0 0.0
2017-May-18 10:00N 29°59' W 093°12'0 0.0
2017-May-18 09:30N 29°59' W 093°12'0 0.0
2017-May-18 09:00N 29°59' W 093°12'0 0.0
2017-May-18 08:30N 29°59' W 093°12'0 0.0
2017-May-18 08:00N 29°59' W 093°12'0 0.0
2017-May-18 07:30N 29°59' W 093°12'0 0.1
2017-May-18 07:00N 29°59' W 093°12'3 6.1
2017-May-18 06:30N 29°56' W 093°10'3 5.2
2017-May-18 06:00N 29°56' W 093°07'0 0.0
2017-May-18 05:30N 29°56' W 093°07'2 4.3
2017-May-18 04:58N 29°56' W 093°04'36 6.1
2017-May-17 23:08N 29°53' W 092°23'1 6.0
2017-May-17 22:59N 29°52' W 092°23'3 5.5
2017-May-17 22:30N 29°51' W 092°20'3 5.6
2017-May-17 22:00N 29°49' W 092°18'3 6.2
2017-May-17 21:30N 29°48' W 092°14'2 4.2
2017-May-17 21:00N 29°47' W 092°12'1 2.5
2017-May-17 20:30N 29°47' W 092°11'0 0.0
2017-May-17 20:00N 29°47' W 092°11'1 2.0
2017-May-17 19:30N 29°47' W 092°10'3 6.9
2017-May-17 19:00N 29°48' W 092°06'3 6.5
2017-May-17 18:30N 29°49' W 092°02'56 5.2
2017-May-17 07:47N 29°37' W 090°59'2 5.7
2017-May-17 07:30N 29°36' W 090°58'3 5.6
2017-May-17 06:59N 29°34' W 090°56'3 6.0
2017-May-17 06:28N 29°32' W 090°53'3 5.8
2017-May-17 06:00N 29°32' W 090°49'3 5.7
2017-May-17 05:30N 29°32' W 090°46'2 4.6
2017-May-17 05:00N 29°34' W 090°44'2 3.7
2017-May-17 04:30N 29°35' W 090°43'2 3.8
2017-May-17 04:00N 29°37' W 090°42'1 1.9
2017-May-17 03:30N 29°36' W 090°41'3 6.0
2017-May-17 03:00N 29°35' W 090°38'3 5.6
2017-May-17 02:30N 29°34' W 090°35'3 6.2
2017-May-17 02:00N 29°34' W 090°31'  
Track history (hours):
 
Tides and Currents Weather Stations Pressure Air Temp Water Temp Dewpoint Dewpoint Depression Visibility Wind Speed Wind Dir Waves Ship Positions

Lavaca Bay

Owner: Higman Barge Lines, Inc, Orange, TX. More information available from US FCC via Universal Licensing System and Coast Guard Vessel Documentation Center.

Last reported at 2017-May-23 06:49 UTC. Time now 2017-May-23 10:57 UTC.
Position N 29°46' W 095°07'.

Length 24 m; draft 3 m.

Type: Towing. MMSI: 367424940.

Date/timePositionNaut miles runAvg speedWind from/ knotsBaromVisibWave heightAir tempDewpointWater temp
2017-May-23 06:49N 29°46' W 095°07'1 2.1
2017-May-23 06:26N 29°45' W 095°06'0 1.0
2017-May-23 05:59N 29°46' W 095°05'1 2.1
2017-May-23 05:30N 29°46' W 095°04'3 6.2
2017-May-23 05:00N 29°44' W 095°01'3 6.1
2017-May-23 04:30N 29°41' W 094°59'4 7.3
2017-May-23 04:00N 29°38' W 094°58'4 7.3
2017-May-23 03:30N 29°35' W 094°56'4 7.2
2017-May-23 03:00N 29°32' W 094°53'3 6.4
2017-May-23 02:30N 29°29' W 094°52'50 1.8
2017-May-21 23:11N 29°49' W 093°59'  
2017-May-18 19:36N 30°03' W 093°44'1 6.3
2017-May-18 19:30N 30°03' W 093°43'3 5.8
2017-May-18 19:00N 30°04' W 093°40'0 0.0
2017-May-18 18:30N 30°04' W 093°40'2 4.7
2017-May-18 18:00N 30°04' W 093°37'3 5.7
2017-May-18 17:30N 30°04' W 093°34'3 6.6
2017-May-18 16:59N 30°04' W 093°30'3 5.5
2017-May-18 16:30N 30°04' W 093°27'4 7.0
2017-May-18 15:59N 30°04' W 093°23'3 5.4
2017-May-18 15:29N 30°05' W 093°20'2 3.8
2017-May-18 15:00N 30°06' W 093°18'0 0.0
2017-May-18 14:00N 30°06' W 093°18'0 0.1
2017-May-18 13:30N 30°06' W 093°18'2 4.1
2017-May-18 13:00N 30°05' W 093°17'2 3.4
2017-May-18 12:30N 30°03' W 093°16'2 4.6
2017-May-18 12:00N 30°01' W 093°14'3 5.5
2017-May-18 11:30N 29°59' W 093°12'0 0.3
2017-May-18 11:00N 29°59' W 093°12'0 0.0
2017-May-18 10:30N 29°59' W 093°12'0 0.0
2017-May-18 10:00N 29°59' W 093°12'0 0.0
2017-May-18 09:30N 29°59' W 093°12'0 0.0
2017-May-18 09:00N 29°59' W 093°12'0 0.0
2017-May-18 08:30N 29°59' W 093°12'0 0.0
2017-May-18 08:00N 29°59' W 093°12'0 0.0
2017-May-18 07:30N 29°59' W 093°12'0 0.1
2017-May-18 07:00N 29°59' W 093°12'3 6.1
2017-May-18 06:30N 29°56' W 093°10'3 5.2
2017-May-18 06:00N 29°56' W 093°07'0 0.0
2017-May-18 05:30N 29°56' W 093°07'2 4.3
2017-May-18 04:58N 29°56' W 093°04'36 6.1
2017-May-17 23:08N 29°53' W 092°23'1 6.0
2017-May-17 22:59N 29°52' W 092°23'3 5.5
2017-May-17 22:30N 29°51' W 092°20'3 5.6
2017-May-17 22:00N 29°49' W 092°18'3 6.2
2017-May-17 21:30N 29°48' W 092°14'2 4.2
2017-May-17 21:00N 29°47' W 092°12'1 2.5
2017-May-17 20:30N 29°47' W 092°11'0 0.0
2017-May-17 20:00N 29°47' W 092°11'1 2.0
2017-May-17 19:30N 29°47' W 092°10'3 6.9
2017-May-17 19:00N 29°48' W 092°06'3 6.5
2017-May-17 18:30N 29°49' W 092°02'56 5.2
2017-May-17 07:47N 29°37' W 090°59'2 5.7
2017-May-17 07:30N 29°36' W 090°58'3 5.6
2017-May-17 06:59N 29°34' W 090°56'3 6.0
2017-May-17 06:28N 29°32' W 090°53'3 5.8
2017-May-17 06:00N 29°32' W 090°49'3 5.7
2017-May-17 05:30N 29°32' W 090°46'2 4.6
2017-May-17 05:00N 29°34' W 090°44'2 3.7
2017-May-17 04:30N 29°35' W 090°43'2 3.8
2017-May-17 04:00N 29°37' W 090°42'1 1.9
2017-May-17 03:30N 29°36' W 090°41'3 6.0
2017-May-17 03:00N 29°35' W 090°38'3 5.6
2017-May-17 02:30N 29°34' W 090°35'3 6.2
2017-May-17 02:00N 29°34' W 090°31'  

Dump ship's entire track history